sensor_id;sensor_type;location;lat;lon;timestamp;P1;durP1;ratioP1;P2;durP2;ratioP2
48199;SDS011;33990;44.602;10.976;2023-01-20T00:01:42;3.42;;;2.20;;
48199;SDS011;33990;44.602;10.976;2023-01-20T00:04:14;4.15;;;2.35;;
48199;SDS011;33990;44.602;10.976;2023-01-20T00:06:44;3.65;;;2.38;;
48199;SDS011;33990;44.602;10.976;2023-01-20T00:09:15;3.28;;;2.47;;
48199;SDS011;33990;44.602;10.976;2023-01-20T00:11:44;3.15;;;2.13;;
48199;SDS011;33990;44.602;10.976;2023-01-20T00:14:12;3.88;;;2.75;;
48199;SDS011;33990;44.602;10.976;2023-01-20T00:16:39;3.70;;;2.63;;
48199;SDS011;33990;44.602;10.976;2023-01-20T00:19:06;3.45;;;2.45;;
48199;SDS011;33990;44.602;10.976;2023-01-20T00:21:35;3.80;;;2.63;;
48199;SDS011;33990;44.602;10.976;2023-01-20T00:24:02;3.90;;;2.47;;
48199;SDS011;33990;44.602;10.976;2023-01-20T00:26:30;4.95;;;2.40;;
48199;SDS011;33990;44.602;10.976;2023-01-20T00:28:57;3.60;;;2.58;;
48199;SDS011;33990;44.602;10.976;2023-01-20T00:31:25;3.97;;;2.58;;
48199;SDS011;33990;44.602;10.976;2023-01-20T00:33:55;3.35;;;2.22;;
48199;SDS011;33990;44.602;10.976;2023-01-20T00:36:24;3.25;;;2.33;;
48199;SDS011;33990;44.602;10.976;2023-01-20T00:38:53;4.00;;;2.47;;
48199;SDS011;33990;44.602;10.976;2023-01-20T00:41:21;3.50;;;2.53;;
48199;SDS011;33990;44.602;10.976;2023-01-20T00:43:48;4.68;;;2.53;;
48199;SDS011;33990;44.602;10.976;2023-01-20T00:46:16;3.72;;;2.40;;
48199;SDS011;33990;44.602;10.976;2023-01-20T00:48:43;4.53;;;2.30;;
48199;SDS011;33990;44.602;10.976;2023-01-20T00:51:10;3.88;;;2.60;;
48199;SDS011;33990;44.602;10.976;2023-01-20T00:53:53;5.22;;;2.00;;
48199;SDS011;33990;44.602;10.976;2023-01-20T00:56:20;3.60;;;2.10;;
48199;SDS011;33990;44.602;10.976;2023-01-20T00:58:47;3.10;;;2.50;;
48199;SDS011;33990;44.602;10.976;2023-01-20T01:01:15;3.60;;;2.40;;
48199;SDS011;33990;44.602;10.976;2023-01-20T01:03:42;3.60;;;2.28;;
48199;SDS011;33990;44.602;10.976;2023-01-20T01:06:11;3.60;;;2.55;;
48199;SDS011;33990;44.602;10.976;2023-01-20T01:08:41;4.32;;;2.85;;
48199;SDS011;33990;44.602;10.976;2023-01-20T01:11:10;3.47;;;2.20;;
48199;SDS011;33990;44.602;10.976;2023-01-20T01:13:38;2.47;;;1.85;;
48199;SDS011;33990;44.602;10.976;2023-01-20T01:16:12;3.90;;;2.28;;
48199;SDS011;33990;44.602;10.976;2023-01-20T01:18:41;3.42;;;2.10;;
48199;SDS011;33990;44.602;10.976;2023-01-20T01:21:10;2.70;;;1.83;;
48199;SDS011;33990;44.602;10.976;2023-01-20T01:23:40;3.03;;;2.00;;
48199;SDS011;33990;44.602;10.976;2023-01-20T01:26:07;3.20;;;1.83;;
48199;SDS011;33990;44.602;10.976;2023-01-20T01:28:36;3.35;;;2.30;;
48199;SDS011;33990;44.602;10.976;2023-01-20T01:31:04;3.58;;;1.83;;
48199;SDS011;33990;44.602;10.976;2023-01-20T01:33:33;4.00;;;1.98;;
48199;SDS011;33990;44.602;10.976;2023-01-20T01:36:01;2.72;;;1.98;;
48199;SDS011;33990;44.602;10.976;2023-01-20T01:38:29;2.95;;;2.10;;
48199;SDS011;33990;44.602;10.976;2023-01-20T01:40:57;2.88;;;2.15;;
48199;SDS011;33990;44.602;10.976;2023-01-20T01:45:54;3.65;;;2.10;;
48199;SDS011;33990;44.602;10.976;2023-01-20T01:48:26;3.13;;;2.08;;
48199;SDS011;33990;44.602;10.976;2023-01-20T01:51:03;3.47;;;1.98;;
48199;SDS011;33990;44.602;10.976;2023-01-20T01:53:37;3.10;;;2.00;;
48199;SDS011;33990;44.602;10.976;2023-01-20T01:56:08;2.80;;;1.98;;
48199;SDS011;33990;44.602;10.976;2023-01-20T01:58:38;4.03;;;2.15;;
48199;SDS011;33990;44.602;10.976;2023-01-20T02:01:10;3.65;;;2.00;;
48199;SDS011;33990;44.602;10.976;2023-01-20T02:03:48;3.00;;;2.10;;
48199;SDS011;33990;44.602;10.976;2023-01-20T02:06:18;4.20;;;2.22;;
48199;SDS011;33990;44.602;10.976;2023-01-20T02:08:48;3.20;;;1.95;;
48199;SDS011;33990;44.602;10.976;2023-01-20T02:11:16;5.68;;;2.08;;
48199;SDS011;33990;44.602;10.976;2023-01-20T02:13:43;3.10;;;1.90;;
48199;SDS011;33990;44.602;10.976;2023-01-20T02:16:19;3.05;;;2.33;;
48199;SDS011;33990;44.602;10.976;2023-01-20T02:42:13;2.67;;;1.95;;
48199;SDS011;33990;44.602;10.976;2023-01-20T02:44:52;2.65;;;1.80;;
48199;SDS011;33990;44.602;10.976;2023-01-20T02:52:37;3.10;;;2.10;;
48199;SDS011;33990;44.602;10.976;2023-01-20T02:57:40;4.40;;;1.80;;
48199;SDS011;33990;44.602;10.976;2023-01-20T03:02:46;3.17;;;1.70;;
48199;SDS011;33990;44.602;10.976;2023-01-20T03:05:17;2.80;;;1.85;;
48199;SDS011;33990;44.602;10.976;2023-01-20T03:07:48;2.28;;;1.65;;
48199;SDS011;33990;44.602;10.976;2023-01-20T03:10:20;3.13;;;1.80;;
48199;SDS011;33990;44.602;10.976;2023-01-20T03:12:52;3.95;;;2.30;;
48199;SDS011;33990;44.602;10.976;2023-01-20T03:15:27;2.67;;;1.80;;
48199;SDS011;33990;44.602;10.976;2023-01-20T03:18:01;3.20;;;2.10;;
48199;SDS011;33990;44.602;10.976;2023-01-20T03:20:29;3.00;;;1.58;;
48199;SDS011;33990;44.602;10.976;2023-01-20T03:22:56;2.50;;;1.60;;
48199;SDS011;33990;44.602;10.976;2023-01-20T03:25:24;2.72;;;1.90;;
48199;SDS011;33990;44.602;10.976;2023-01-20T03:27:51;3.28;;;2.05;;
48199;SDS011;33990;44.602;10.976;2023-01-20T03:30:19;4.45;;;2.17;;
48199;SDS011;33990;44.602;10.976;2023-01-20T03:32:47;3.80;;;2.05;;
48199;SDS011;33990;44.602;10.976;2023-01-20T03:35:17;2.45;;;1.65;;
48199;SDS011;33990;44.602;10.976;2023-01-20T03:37:45;3.15;;;2.15;;
48199;SDS011;33990;44.602;10.976;2023-01-20T03:40:13;2.55;;;1.60;;
48199;SDS011;33990;44.602;10.976;2023-01-20T03:45:59;3.72;;;2.17;;
48199;SDS011;33990;44.602;10.976;2023-01-20T03:48:45;3.20;;;1.85;;
48199;SDS011;33990;44.602;10.976;2023-01-20T03:54:00;2.53;;;1.58;;
48199;SDS011;33990;44.602;10.976;2023-01-20T03:59:17;3.53;;;2.22;;
48199;SDS011;33990;44.602;10.976;2023-01-20T04:01:46;2.55;;;1.58;;
48199;SDS011;33990;44.602;10.976;2023-01-20T04:04:15;2.70;;;1.60;;
48199;SDS011;33990;44.602;10.976;2023-01-20T04:06:45;2.78;;;1.80;;
48199;SDS011;33990;44.602;10.976;2023-01-20T04:09:18;2.97;;;1.92;;
48199;SDS011;33990;44.602;10.976;2023-01-20T04:11:50;3.13;;;1.58;;
48199;SDS011;33990;44.602;10.976;2023-01-20T04:14:17;3.80;;;2.00;;
48199;SDS011;33990;44.602;10.976;2023-01-20T04:16:49;2.97;;;1.75;;
48199;SDS011;33990;44.602;10.976;2023-01-20T04:19:19;3.13;;;2.08;;
48199;SDS011;33990;44.602;10.976;2023-01-20T04:21:57;2.30;;;1.35;;
48199;SDS011;33990;44.602;10.976;2023-01-20T04:24:30;3.15;;;2.03;;
48199;SDS011;33990;44.602;10.976;2023-01-20T04:27:03;5.28;;;2.10;;
48199;SDS011;33990;44.602;10.976;2023-01-20T04:29:31;3.58;;;2.13;;
48199;SDS011;33990;44.602;10.976;2023-01-20T04:31:59;3.13;;;1.77;;
48199;SDS011;33990;44.602;10.976;2023-01-20T04:34:27;3.15;;;2.08;;
48199;SDS011;33990;44.602;10.976;2023-01-20T04:36:54;2.90;;;1.70;;
48199;SDS011;33990;44.602;10.976;2023-01-20T04:39:22;2.97;;;2.05;;
48199;SDS011;33990;44.602;10.976;2023-01-20T04:41:49;2.63;;;1.77;;
48199;SDS011;33990;44.602;10.976;2023-01-20T04:44:16;3.53;;;1.80;;
48199;SDS011;33990;44.602;10.976;2023-01-20T04:46:43;3.50;;;2.00;;
48199;SDS011;33990;44.602;10.976;2023-01-20T04:49:13;2.58;;;1.80;;
48199;SDS011;33990;44.602;10.976;2023-01-20T04:51:41;2.80;;;1.70;;
48199;SDS011;33990;44.602;10.976;2023-01-20T04:54:08;2.75;;;1.58;;
48199;SDS011;33990;44.602;10.976;2023-01-20T04:56:37;3.33;;;1.80;;
48199;SDS011;33990;44.602;10.976;2023-01-20T04:59:04;2.80;;;1.70;;
48199;SDS011;33990;44.602;10.976;2023-01-20T05:01:31;3.72;;;1.88;;
48199;SDS011;33990;44.602;10.976;2023-01-20T05:03:59;3.50;;;1.98;;
48199;SDS011;33990;44.602;10.976;2023-01-20T05:06:26;2.50;;;1.63;;
48199;SDS011;33990;44.602;10.976;2023-01-20T05:08:54;2.55;;;1.83;;
48199;SDS011;33990;44.602;10.976;2023-01-20T05:11:21;2.85;;;1.95;;
48199;SDS011;33990;44.602;10.976;2023-01-20T05:13:48;2.65;;;1.65;;
48199;SDS011;33990;44.602;10.976;2023-01-20T05:16:16;3.40;;;1.92;;
48199;SDS011;33990;44.602;10.976;2023-01-20T05:18:49;3.30;;;1.92;;
48199;SDS011;33990;44.602;10.976;2023-01-20T05:21:17;3.88;;;2.42;;
48199;SDS011;33990;44.602;10.976;2023-01-20T05:23:44;2.47;;;1.70;;
48199;SDS011;33990;44.602;10.976;2023-01-20T05:26:11;3.47;;;2.28;;
48199;SDS011;33990;44.602;10.976;2023-01-20T05:28:39;4.07;;;2.40;;
48199;SDS011;33990;44.602;10.976;2023-01-20T05:31:08;4.50;;;1.90;;
48199;SDS011;33990;44.602;10.976;2023-01-20T05:33:35;3.67;;;2.20;;
48199;SDS011;33990;44.602;10.976;2023-01-20T05:36:05;2.80;;;1.77;;
48199;SDS011;33990;44.602;10.976;2023-01-20T05:38:34;2.97;;;2.10;;
48199;SDS011;33990;44.602;10.976;2023-01-20T05:41:02;3.03;;;2.00;;
48199;SDS011;33990;44.602;10.976;2023-01-20T05:43:31;4.18;;;1.65;;
48199;SDS011;33990;44.602;10.976;2023-01-20T05:45:59;2.95;;;1.67;;
48199;SDS011;33990;44.602;10.976;2023-01-20T05:48:26;3.03;;;1.83;;
48199;SDS011;33990;44.602;10.976;2023-01-20T05:50:54;3.78;;;1.92;;
48199;SDS011;33990;44.602;10.976;2023-01-20T05:53:21;5.05;;;2.60;;
48199;SDS011;33990;44.602;10.976;2023-01-20T05:55:56;5.60;;;2.30;;
48199;SDS011;33990;44.602;10.976;2023-01-20T05:58:25;3.45;;;1.80;;
48199;SDS011;33990;44.602;10.976;2023-01-20T06:00:52;4.18;;;2.10;;
48199;SDS011;33990;44.602;10.976;2023-01-20T06:03:19;3.20;;;2.10;;
48199;SDS011;33990;44.602;10.976;2023-01-20T06:05:46;3.20;;;2.05;;
48199;SDS011;33990;44.602;10.976;2023-01-20T06:08:15;4.20;;;2.17;;
48199;SDS011;33990;44.602;10.976;2023-01-20T06:10:42;4.03;;;1.60;;
48199;SDS011;33990;44.602;10.976;2023-01-20T06:13:09;3.38;;;1.90;;
48199;SDS011;33990;44.602;10.976;2023-01-20T06:15:37;2.88;;;1.83;;
48199;SDS011;33990;44.602;10.976;2023-01-20T06:18:04;3.30;;;2.22;;
48199;SDS011;33990;44.602;10.976;2023-01-20T06:20:33;3.72;;;2.20;;
48199;SDS011;33990;44.602;10.976;2023-01-20T06:23:00;4.13;;;2.45;;
48199;SDS011;33990;44.602;10.976;2023-01-20T06:25:27;3.15;;;2.13;;
48199;SDS011;33990;44.602;10.976;2023-01-20T06:27:55;2.83;;;2.10;;
48199;SDS011;33990;44.602;10.976;2023-01-20T06:30:24;3.72;;;2.13;;
48199;SDS011;33990;44.602;10.976;2023-01-20T06:32:51;5.68;;;2.80;;
48199;SDS011;33990;44.602;10.976;2023-01-20T06:35:20;3.42;;;2.08;;
48199;SDS011;33990;44.602;10.976;2023-01-20T06:37:47;2.88;;;1.95;;
48199;SDS011;33990;44.602;10.976;2023-01-20T06:40:15;4.10;;;2.38;;
48199;SDS011;33990;44.602;10.976;2023-01-20T06:42:42;3.35;;;2.45;;
48199;SDS011;33990;44.602;10.976;2023-01-20T06:45:10;3.53;;;2.58;;
48199;SDS011;33990;44.602;10.976;2023-01-20T06:47:37;4.82;;;2.85;;
48199;SDS011;33990;44.602;10.976;2023-01-20T06:50:07;3.03;;;2.28;;
48199;SDS011;33990;44.602;10.976;2023-01-20T06:52:35;5.25;;;3.42;;
48199;SDS011;33990;44.602;10.976;2023-01-20T06:55:02;3.67;;;2.58;;
48199;SDS011;33990;44.602;10.976;2023-01-20T06:57:30;4.72;;;2.72;;
48199;SDS011;33990;44.602;10.976;2023-01-20T06:59:57;4.53;;;2.90;;
48199;SDS011;33990;44.602;10.976;2023-01-20T07:02:25;3.42;;;2.58;;
48199;SDS011;33990;44.602;10.976;2023-01-20T07:04:52;5.05;;;2.50;;
48199;SDS011;33990;44.602;10.976;2023-01-20T07:07:19;3.55;;;2.50;;
48199;SDS011;33990;44.602;10.976;2023-01-20T07:09:47;3.30;;;2.40;;
48199;SDS011;33990;44.602;10.976;2023-01-20T07:12:14;4.35;;;2.60;;
48199;SDS011;33990;44.602;10.976;2023-01-20T07:14:41;3.72;;;2.40;;
48199;SDS011;33990;44.602;10.976;2023-01-20T07:17:10;5.18;;;2.80;;
48199;SDS011;33990;44.602;10.976;2023-01-20T07:19:38;4.38;;;2.78;;
48199;SDS011;33990;44.602;10.976;2023-01-20T07:22:05;3.50;;;2.58;;
48199;SDS011;33990;44.602;10.976;2023-01-20T07:24:32;4.28;;;2.90;;
48199;SDS011;33990;44.602;10.976;2023-01-20T07:27:00;4.95;;;2.40;;
48199;SDS011;33990;44.602;10.976;2023-01-20T07:29:27;4.38;;;2.83;;
48199;SDS011;33990;44.602;10.976;2023-01-20T07:31:54;6.30;;;2.83;;
48199;SDS011;33990;44.602;10.976;2023-01-20T07:34:22;5.07;;;2.67;;
48199;SDS011;33990;44.602;10.976;2023-01-20T07:36:52;3.70;;;2.75;;
48199;SDS011;33990;44.602;10.976;2023-01-20T07:39:20;7.22;;;3.08;;
48199;SDS011;33990;44.602;10.976;2023-01-20T07:41:47;4.50;;;2.95;;
48199;SDS011;33990;44.602;10.976;2023-01-20T07:44:15;3.35;;;2.67;;
48199;SDS011;33990;44.602;10.976;2023-01-20T07:46:43;4.47;;;3.13;;
48199;SDS011;33990;44.602;10.976;2023-01-20T07:49:10;9.25;;;7.10;;
48199;SDS011;33990;44.602;10.976;2023-01-20T07:51:38;13.65;;;10.70;;
48199;SDS011;33990;44.602;10.976;2023-01-20T07:54:05;17.30;;;11.02;;
48199;SDS011;33990;44.602;10.976;2023-01-20T07:56:33;14.80;;;11.48;;
48199;SDS011;33990;44.602;10.976;2023-01-20T07:59:00;14.55;;;11.82;;
48199;SDS011;33990;44.602;10.976;2023-01-20T08:01:28;17.00;;;11.13;;
48199;SDS011;33990;44.602;10.976;2023-01-20T08:03:58;13.13;;;10.63;;
48199;SDS011;33990;44.602;10.976;2023-01-20T08:06:29;14.07;;;10.70;;
48199;SDS011;33990;44.602;10.976;2023-01-20T08:09:00;12.07;;;10.25;;
48199;SDS011;33990;44.602;10.976;2023-01-20T08:11:28;13.18;;;11.10;;
48199;SDS011;33990;44.602;10.976;2023-01-20T08:13:55;13.18;;;11.25;;
48199;SDS011;33990;44.602;10.976;2023-01-20T08:16:23;12.45;;;11.15;;
48199;SDS011;33990;44.602;10.976;2023-01-20T08:18:51;11.68;;;9.88;;
48199;SDS011;33990;44.602;10.976;2023-01-20T08:21:24;11.98;;;10.15;;
48199;SDS011;33990;44.602;10.976;2023-01-20T08:24:00;11.57;;;10.32;;
48199;SDS011;33990;44.602;10.976;2023-01-20T08:26:28;11.63;;;9.10;;
48199;SDS011;33990;44.602;10.976;2023-01-20T08:29:06;13.85;;;11.70;;
48199;SDS011;33990;44.602;10.976;2023-01-20T08:31:35;13.45;;;11.75;;
48199;SDS011;33990;44.602;10.976;2023-01-20T08:34:03;14.52;;;12.18;;
48199;SDS011;33990;44.602;10.976;2023-01-20T08:36:34;15.02;;;13.25;;
48199;SDS011;33990;44.602;10.976;2023-01-20T08:39:03;18.33;;;13.60;;
48199;SDS011;33990;44.602;10.976;2023-01-20T08:41:33;15.45;;;13.35;;
48199;SDS011;33990;44.602;10.976;2023-01-20T08:44:04;14.13;;;12.07;;
48199;SDS011;33990;44.602;10.976;2023-01-20T08:46:33;13.98;;;12.18;;
48199;SDS011;33990;44.602;10.976;2023-01-20T08:49:01;13.88;;;10.75;;
48199;SDS011;33990;44.602;10.976;2023-01-20T08:51:29;11.05;;;8.82;;
48199;SDS011;33990;44.602;10.976;2023-01-20T08:53:58;8.32;;;6.88;;
48199;SDS011;33990;44.602;10.976;2023-01-20T08:56:26;8.18;;;6.45;;
48199;SDS011;33990;44.602;10.976;2023-01-20T08:58:55;7.90;;;5.28;;
48199;SDS011;33990;44.602;10.976;2023-01-20T09:01:24;6.53;;;5.63;;
48199;SDS011;33990;44.602;10.976;2023-01-20T09:03:53;8.57;;;5.55;;
48199;SDS011;33990;44.602;10.976;2023-01-20T09:06:45;8.70;;;5.03;;
48199;SDS011;33990;44.602;10.976;2023-01-20T09:09:16;6.55;;;4.25;;
48199;SDS011;33990;44.602;10.976;2023-01-20T09:11:45;5.40;;;4.30;;
48199;SDS011;33990;44.602;10.976;2023-01-20T09:14:19;5.18;;;3.72;;
48199;SDS011;33990;44.602;10.976;2023-01-20T09:16:49;5.75;;;4.03;;
48199;SDS011;33990;44.602;10.976;2023-01-20T09:19:17;5.70;;;4.05;;
48199;SDS011;33990;44.602;10.976;2023-01-20T09:21:45;4.18;;;3.25;;
48199;SDS011;33990;44.602;10.976;2023-01-20T09:24:12;4.55;;;3.60;;
48199;SDS011;33990;44.602;10.976;2023-01-20T09:26:39;4.47;;;3.33;;
48199;SDS011;33990;44.602;10.976;2023-01-20T09:29:10;5.57;;;3.20;;
48199;SDS011;33990;44.602;10.976;2023-01-20T09:31:40;3.90;;;2.58;;
48199;SDS011;33990;44.602;10.976;2023-01-20T09:34:12;5.88;;;3.13;;
48199;SDS011;33990;44.602;10.976;2023-01-20T09:36:51;5.10;;;3.20;;
48199;SDS011;33990;44.602;10.976;2023-01-20T09:39:46;5.00;;;3.10;;
48199;SDS011;33990;44.602;10.976;2023-01-20T09:42:43;5.32;;;3.08;;
48199;SDS011;33990;44.602;10.976;2023-01-20T09:45:55;5.45;;;3.25;;
48199;SDS011;33990;44.602;10.976;2023-01-20T09:57:59;5.63;;;2.80;;
48199;SDS011;33990;44.602;10.976;2023-01-20T10:00:37;3.58;;;2.38;;
48199;SDS011;33990;44.602;10.976;2023-01-20T10:03:11;6.10;;;2.88;;
48199;SDS011;33990;44.602;10.976;2023-01-20T10:05:43;3.60;;;2.80;;
48199;SDS011;33990;44.602;10.976;2023-01-20T10:08:22;3.58;;;2.08;;
48199;SDS011;33990;44.602;10.976;2023-01-20T10:11:04;3.13;;;1.92;;
48199;SDS011;33990;44.602;10.976;2023-01-20T10:13:39;3.28;;;2.10;;
48199;SDS011;33990;44.602;10.976;2023-01-20T10:16:17;3.45;;;2.10;;
48199;SDS011;33990;44.602;10.976;2023-01-20T10:18:51;3.83;;;2.40;;
48199;SDS011;33990;44.602;10.976;2023-01-20T10:29:12;4.47;;;2.72;;
48199;SDS011;33990;44.602;10.976;2023-01-20T10:31:48;3.72;;;2.13;;
48199;SDS011;33990;44.602;10.976;2023-01-20T10:34:23;3.53;;;2.13;;
48199;SDS011;33990;44.602;10.976;2023-01-20T10:37:00;4.57;;;2.78;;
48199;SDS011;33990;44.602;10.976;2023-01-20T10:42:10;3.35;;;2.25;;
48199;SDS011;33990;44.602;10.976;2023-01-20T10:44:39;3.63;;;2.20;;
48199;SDS011;33990;44.602;10.976;2023-01-20T10:47:14;3.28;;;2.30;;
48199;SDS011;33990;44.602;10.976;2023-01-20T10:49:44;4.57;;;2.22;;
48199;SDS011;33990;44.602;10.976;2023-01-20T10:55:05;4.57;;;2.22;;
48199;SDS011;33990;44.602;10.976;2023-01-20T10:57:52;3.40;;;2.03;;
48199;SDS011;33990;44.602;10.976;2023-01-20T11:00:25;3.25;;;1.73;;
48199;SDS011;33990;44.602;10.976;2023-01-20T11:02:56;4.70;;;2.45;;
48199;SDS011;33990;44.602;10.976;2023-01-20T11:05:29;3.60;;;2.03;;
48199;SDS011;33990;44.602;10.976;2023-01-20T11:07:58;3.38;;;1.92;;
48199;SDS011;33990;44.602;10.976;2023-01-20T11:10:41;3.57;;;2.37;;
48199;SDS011;33990;44.602;10.976;2023-01-20T11:13:09;3.38;;;1.90;;
48199;SDS011;33990;44.602;10.976;2023-01-20T11:15:42;3.53;;;2.30;;
48199;SDS011;33990;44.602;10.976;2023-01-20T11:23:22;2.85;;;1.80;;
48199;SDS011;33990;44.602;10.976;2023-01-20T11:26:16;3.10;;;2.10;;
48199;SDS011;33990;44.602;10.976;2023-01-20T11:31:18;4.25;;;2.08;;
48199;SDS011;33990;44.602;10.976;2023-01-20T11:33:53;3.28;;;1.85;;
48199;SDS011;33990;44.602;10.976;2023-01-20T11:36:25;2.70;;;1.88;;
48199;SDS011;33990;44.602;10.976;2023-01-20T11:38:54;4.53;;;2.10;;
48199;SDS011;33990;44.602;10.976;2023-01-20T11:43:57;3.20;;;2.00;;
48199;SDS011;33990;44.602;10.976;2023-01-20T11:46:28;3.67;;;1.95;;
48199;SDS011;33990;44.602;10.976;2023-01-20T11:49:11;5.45;;;2.00;;
48199;SDS011;33990;44.602;10.976;2023-01-20T11:51:43;3.50;;;1.90;;
48199;SDS011;33990;44.602;10.976;2023-01-20T11:54:16;3.55;;;2.20;;
48199;SDS011;33990;44.602;10.976;2023-01-20T11:56:47;5.60;;;2.10;;
48199;SDS011;33990;44.602;10.976;2023-01-20T11:59:19;2.85;;;1.85;;
48199;SDS011;33990;44.602;10.976;2023-01-20T12:01:59;4.15;;;1.85;;
48199;SDS011;33990;44.602;10.976;2023-01-20T12:07:14;3.80;;;2.25;;
48199;SDS011;33990;44.602;10.976;2023-01-20T12:09:50;5.25;;;3.78;;
48199;SDS011;33990;44.602;10.976;2023-01-20T12:15:13;8.27;;;5.25;;
48199;SDS011;33990;44.602;10.976;2023-01-20T12:20:17;7.30;;;5.28;;
48199;SDS011;33990;44.602;10.976;2023-01-20T12:25:23;8.45;;;6.15;;
48199;SDS011;33990;44.602;10.976;2023-01-20T12:28:00;7.70;;;5.70;;
48199;SDS011;33990;44.602;10.976;2023-01-20T12:33:22;9.00;;;6.18;;
48199;SDS011;33990;44.602;10.976;2023-01-20T12:38:42;7.18;;;5.57;;
48199;SDS011;33990;44.602;10.976;2023-01-20T12:55:51;9.30;;;5.47;;
48199;SDS011;33990;44.602;10.976;2023-01-20T13:14:29;6.70;;;5.13;;
48199;SDS011;33990;44.602;10.976;2023-01-20T13:17:22;5.88;;;4.78;;
48199;SDS011;33990;44.602;10.976;2023-01-20T13:19:58;6.78;;;5.18;;
48199;SDS011;33990;44.602;10.976;2023-01-20T13:22:29;7.18;;;5.53;;
48199;SDS011;33990;44.602;10.976;2023-01-20T13:24:57;8.07;;;5.53;;
48199;SDS011;33990;44.602;10.976;2023-01-20T13:27:34;7.32;;;5.10;;
48199;SDS011;33990;44.602;10.976;2023-01-20T13:30:04;8.00;;;5.63;;
48199;SDS011;33990;44.602;10.976;2023-01-20T13:37:52;7.93;;;5.55;;
48199;SDS011;33990;44.602;10.976;2023-01-20T13:48:29;7.65;;;5.25;;
48199;SDS011;33990;44.602;10.976;2023-01-20T13:54:34;7.38;;;5.00;;
48199;SDS011;33990;44.602;10.976;2023-01-20T13:59:49;6.22;;;4.57;;
48199;SDS011;33990;44.602;10.976;2023-01-20T14:02:17;6.22;;;4.65;;
48199;SDS011;33990;44.602;10.976;2023-01-20T14:04:45;5.75;;;4.65;;
48199;SDS011;33990;44.602;10.976;2023-01-20T14:07:22;6.82;;;4.85;;
48199;SDS011;33990;44.602;10.976;2023-01-20T14:09:54;7.47;;;5.03;;
48199;SDS011;33990;44.602;10.976;2023-01-20T14:12:24;5.65;;;4.35;;
48199;SDS011;33990;44.602;10.976;2023-01-20T14:14:52;7.10;;;4.72;;
48199;SDS011;33990;44.602;10.976;2023-01-20T14:17:21;7.35;;;4.97;;
48199;SDS011;33990;44.602;10.976;2023-01-20T14:19:53;6.97;;;4.63;;
48199;SDS011;33990;44.602;10.976;2023-01-20T14:22:25;6.63;;;3.67;;
48199;SDS011;33990;44.602;10.976;2023-01-20T14:24:58;5.28;;;3.95;;
48199;SDS011;33990;44.602;10.976;2023-01-20T14:30:11;5.70;;;4.22;;
48199;SDS011;33990;44.602;10.976;2023-01-20T14:32:42;5.53;;;4.20;;
48199;SDS011;33990;44.602;10.976;2023-01-20T14:35:29;5.88;;;4.05;;
48199;SDS011;33990;44.602;10.976;2023-01-20T14:37:59;5.43;;;3.88;;
48199;SDS011;33990;44.602;10.976;2023-01-20T14:40:31;6.25;;;4.47;;
48199;SDS011;33990;44.602;10.976;2023-01-20T14:43:20;5.32;;;4.10;;
48199;SDS011;33990;44.602;10.976;2023-01-20T14:45:49;5.90;;;3.95;;
48199;SDS011;33990;44.602;10.976;2023-01-20T14:48:20;7.15;;;4.70;;
48199;SDS011;33990;44.602;10.976;2023-01-20T14:51:00;5.25;;;3.70;;
48199;SDS011;33990;44.602;10.976;2023-01-20T14:53:30;4.70;;;3.80;;
48199;SDS011;33990;44.602;10.976;2023-01-20T14:58:33;6.93;;;4.55;;
48199;SDS011;33990;44.602;10.976;2023-01-20T15:01:03;6.05;;;4.13;;
48199;SDS011;33990;44.602;10.976;2023-01-20T15:03:32;5.13;;;3.85;;
48199;SDS011;33990;44.602;10.976;2023-01-20T15:21:41;5.50;;;3.95;;
48199;SDS011;33990;44.602;10.976;2023-01-20T15:24:12;4.63;;;3.67;;
48199;SDS011;33990;44.602;10.976;2023-01-20T15:26:41;4.68;;;3.40;;
48199;SDS011;33990;44.602;10.976;2023-01-20T15:31:55;4.60;;;3.40;;
48199;SDS011;33990;44.602;10.976;2023-01-20T15:34:26;4.65;;;3.50;;
48199;SDS011;33990;44.602;10.976;2023-01-20T15:36:54;4.93;;;3.67;;
48199;SDS011;33990;44.602;10.976;2023-01-20T15:39:23;5.05;;;3.25;;
48199;SDS011;33990;44.602;10.976;2023-01-20T15:41:56;4.70;;;3.67;;
48199;SDS011;33990;44.602;10.976;2023-01-20T15:44:24;5.30;;;3.55;;
48199;SDS011;33990;44.602;10.976;2023-01-20T15:46:52;8.57;;;7.60;;
48199;SDS011;33990;44.602;10.976;2023-01-20T15:49:23;7.07;;;6.10;;
48199;SDS011;33990;44.602;10.976;2023-01-20T15:51:51;5.50;;;3.92;;
48199;SDS011;33990;44.602;10.976;2023-01-20T15:54:19;5.10;;;3.90;;
48199;SDS011;33990;44.602;10.976;2023-01-20T15:56:46;4.90;;;3.58;;
48199;SDS011;33990;44.602;10.976;2023-01-20T15:59:15;5.55;;;3.70;;
48199;SDS011;33990;44.602;10.976;2023-01-20T16:01:44;5.45;;;3.00;;
48199;SDS011;33990;44.602;10.976;2023-01-20T16:06:46;5.22;;;3.40;;
48199;SDS011;33990;44.602;10.976;2023-01-20T16:09:21;5.20;;;3.72;;
48199;SDS011;33990;44.602;10.976;2023-01-20T16:11:51;6.68;;;3.28;;
48199;SDS011;33990;44.602;10.976;2023-01-20T16:14:19;6.07;;;3.30;;
48199;SDS011;33990;44.602;10.976;2023-01-20T16:16:46;4.63;;;3.28;;
48199;SDS011;33990;44.602;10.976;2023-01-20T16:19:15;4.30;;;3.30;;
48199;SDS011;33990;44.602;10.976;2023-01-20T16:21:43;4.65;;;3.20;;
48199;SDS011;33990;44.602;10.976;2023-01-20T16:24:11;7.32;;;3.25;;
48199;SDS011;33990;44.602;10.976;2023-01-20T16:26:39;4.68;;;2.90;;
48199;SDS011;33990;44.602;10.976;2023-01-20T16:29:10;4.35;;;3.17;;
48199;SDS011;33990;44.602;10.976;2023-01-20T16:31:37;4.95;;;3.13;;
48199;SDS011;33990;44.602;10.976;2023-01-20T16:34:05;4.85;;;3.17;;
48199;SDS011;33990;44.602;10.976;2023-01-20T16:36:33;5.18;;;3.15;;
48199;SDS011;33990;44.602;10.976;2023-01-20T16:39:01;4.25;;;3.10;;
48199;SDS011;33990;44.602;10.976;2023-01-20T16:41:28;4.75;;;2.80;;
48199;SDS011;33990;44.602;10.976;2023-01-20T16:43:56;5.85;;;3.08;;
48199;SDS011;33990;44.602;10.976;2023-01-20T16:46:25;3.72;;;2.72;;
48199;SDS011;33990;44.602;10.976;2023-01-20T16:48:55;3.88;;;2.67;;
48199;SDS011;33990;44.602;10.976;2023-01-20T16:51:28;4.28;;;3.00;;
48199;SDS011;33990;44.602;10.976;2023-01-20T16:53:56;4.50;;;2.95;;
48199;SDS011;33990;44.602;10.976;2023-01-20T16:56:25;4.93;;;3.15;;
48199;SDS011;33990;44.602;10.976;2023-01-20T16:58:54;6.10;;;2.72;;
48199;SDS011;33990;44.602;10.976;2023-01-20T17:01:27;4.15;;;2.97;;
48199;SDS011;33990;44.602;10.976;2023-01-20T17:03:59;4.03;;;2.83;;
48199;SDS011;33990;44.602;10.976;2023-01-20T17:06:29;4.45;;;3.20;;
48199;SDS011;33990;44.602;10.976;2023-01-20T17:08:59;5.57;;;3.15;;
48199;SDS011;33990;44.602;10.976;2023-01-20T17:11:29;5.10;;;2.78;;
48199;SDS011;33990;44.602;10.976;2023-01-20T17:13:57;5.35;;;3.00;;
48199;SDS011;33990;44.602;10.976;2023-01-20T17:16:27;5.03;;;3.13;;
48199;SDS011;33990;44.602;10.976;2023-01-20T17:18:55;4.50;;;2.55;;
48199;SDS011;33990;44.602;10.976;2023-01-20T17:21:25;4.50;;;3.15;;
48199;SDS011;33990;44.602;10.976;2023-01-20T17:23:58;6.57;;;2.92;;
48199;SDS011;33990;44.602;10.976;2023-01-20T17:26:28;5.63;;;3.08;;
48199;SDS011;33990;44.602;10.976;2023-01-20T17:28:57;4.40;;;3.17;;
48199;SDS011;33990;44.602;10.976;2023-01-20T17:31:25;4.15;;;2.90;;
48199;SDS011;33990;44.602;10.976;2023-01-20T17:33:54;4.00;;;3.00;;
48199;SDS011;33990;44.602;10.976;2023-01-20T17:36:21;4.63;;;2.95;;
48199;SDS011;33990;44.602;10.976;2023-01-20T17:38:49;4.80;;;2.90;;
48199;SDS011;33990;44.602;10.976;2023-01-20T17:41:16;4.82;;;3.03;;
48199;SDS011;33990;44.602;10.976;2023-01-20T17:43:43;4.45;;;3.33;;